sensor_id;sensor_type;location;lat;lon;timestamp;P1;durP1;ratioP1;P2;durP2;ratioP2
7621;SDS011;3852;52.284;8.032;2022-10-16T00:01:19;5.17;;;3.87;;
7621;SDS011;3852;52.284;8.032;2022-10-16T00:03:49;5.53;;;4.23;;
7621;SDS011;3852;52.284;8.032;2022-10-16T00:06:17;5.90;;;4.63;;
7621;SDS011;3852;52.284;8.032;2022-10-16T00:08:44;4.23;;;3.83;;
7621;SDS011;3852;52.284;8.032;2022-10-16T00:11:13;5.77;;;4.37;;
7621;SDS011;3852;52.284;8.032;2022-10-16T00:13:41;6.10;;;3.97;;
7621;SDS011;3852;52.284;8.032;2022-10-16T00:16:09;5.13;;;3.93;;
7621;SDS011;3852;52.284;8.032;2022-10-16T00:18:36;7.17;;;5.07;;
7621;SDS011;3852;52.284;8.032;2022-10-16T00:21:08;7.53;;;4.77;;
7621;SDS011;3852;52.284;8.032;2022-10-16T00:23:40;6.37;;;4.83;;
7621;SDS011;3852;52.284;8.032;2022-10-16T00:26:08;9.43;;;4.43;;
7621;SDS011;3852;52.284;8.032;2022-10-16T00:28:39;7.20;;;4.50;;
7621;SDS011;3852;52.284;8.032;2022-10-16T00:31:11;5.47;;;4.60;;
7621;SDS011;3852;52.284;8.032;2022-10-16T00:33:38;7.10;;;4.80;;
7621;SDS011;3852;52.284;8.032;2022-10-16T00:36:05;9.03;;;5.33;;
7621;SDS011;3852;52.284;8.032;2022-10-16T00:38:33;8.23;;;6.00;;
7621;SDS011;3852;52.284;8.032;2022-10-16T00:40:59;8.87;;;6.13;;
7621;SDS011;3852;52.284;8.032;2022-10-16T00:46:38;7.53;;;5.60;;
7621;SDS011;3852;52.284;8.032;2022-10-16T00:49:08;8.20;;;6.30;;
7621;SDS011;3852;52.284;8.032;2022-10-16T00:51:42;8.80;;;6.53;;
7621;SDS011;3852;52.284;8.032;2022-10-16T00:54:12;8.90;;;6.43;;
7621;SDS011;3852;52.284;8.032;2022-10-16T00:56:42;8.20;;;7.10;;
7621;SDS011;3852;52.284;8.032;2022-10-16T00:59:16;9.47;;;7.00;;
7621;SDS011;3852;52.284;8.032;2022-10-16T01:01:50;10.43;;;7.10;;
7621;SDS011;3852;52.284;8.032;2022-10-16T01:04:17;12.07;;;7.40;;
7621;SDS011;3852;52.284;8.032;2022-10-16T01:09:32;10.20;;;7.50;;
7621;SDS011;3852;52.284;8.032;2022-10-16T01:12:42;11.23;;;7.50;;
7621;SDS011;3852;52.284;8.032;2022-10-16T01:15:41;11.97;;;8.10;;
7621;SDS011;3852;52.284;8.032;2022-10-16T01:20:42;9.90;;;7.00;;
7621;SDS011;3852;52.284;8.032;2022-10-16T01:29:07;9.43;;;7.83;;
7621;SDS011;3852;52.284;8.032;2022-10-16T01:31:44;10.93;;;7.73;;
7621;SDS011;3852;52.284;8.032;2022-10-16T01:34:19;9.80;;;7.57;;
7621;SDS011;3852;52.284;8.032;2022-10-16T01:36:53;11.40;;;7.53;;
7621;SDS011;3852;52.284;8.032;2022-10-16T01:39:29;12.10;;;7.87;;
7621;SDS011;3852;52.284;8.032;2022-10-16T01:42:01;12.40;;;8.20;;
7621;SDS011;3852;52.284;8.032;2022-10-16T01:44:34;9.67;;;7.40;;
7621;SDS011;3852;52.284;8.032;2022-10-16T01:47:02;8.93;;;7.00;;
7621;SDS011;3852;52.284;8.032;2022-10-16T01:49:31;11.60;;;8.40;;
7621;SDS011;3852;52.284;8.032;2022-10-16T01:51:59;9.80;;;7.70;;
7621;SDS011;3852;52.284;8.032;2022-10-16T01:54:33;12.50;;;8.70;;
7621;SDS011;3852;52.284;8.032;2022-10-16T01:57:03;13.20;;;9.30;;
7621;SDS011;3852;52.284;8.032;2022-10-16T01:59:31;11.73;;;8.23;;
7621;SDS011;3852;52.284;8.032;2022-10-16T02:02:01;11.70;;;8.40;;
7621;SDS011;3852;52.284;8.032;2022-10-16T02:04:34;13.47;;;9.57;;
7621;SDS011;3852;52.284;8.032;2022-10-16T02:07:08;15.47;;;9.97;;
7621;SDS011;3852;52.284;8.032;2022-10-16T02:09:36;11.10;;;8.93;;
7621;SDS011;3852;52.284;8.032;2022-10-16T02:12:05;12.40;;;9.03;;
7621;SDS011;3852;52.284;8.032;2022-10-16T02:14:37;15.67;;;10.33;;
7621;SDS011;3852;52.284;8.032;2022-10-16T02:17:19;16.30;;;10.13;;
7621;SDS011;3852;52.284;8.032;2022-10-16T02:19:46;11.57;;;10.10;;
7621;SDS011;3852;52.284;8.032;2022-10-16T02:22:34;11.67;;;9.63;;
7621;SDS011;3852;52.284;8.032;2022-10-16T02:25:06;11.97;;;9.40;;
7621;SDS011;3852;52.284;8.032;2022-10-16T02:27:54;12.47;;;8.90;;
7621;SDS011;3852;52.284;8.032;2022-10-16T02:30:43;11.40;;;9.20;;
7621;SDS011;3852;52.284;8.032;2022-10-16T02:33:16;14.37;;;10.47;;
7621;SDS011;3852;52.284;8.032;2022-10-16T02:35:44;10.43;;;8.60;;
7621;SDS011;3852;52.284;8.032;2022-10-16T02:38:13;9.83;;;8.83;;
7621;SDS011;3852;52.284;8.032;2022-10-16T02:40:41;13.60;;;9.90;;
7621;SDS011;3852;52.284;8.032;2022-10-16T02:43:07;18.27;;;10.40;;
7621;SDS011;3852;52.284;8.032;2022-10-16T02:45:34;13.80;;;9.07;;
7621;SDS011;3852;52.284;8.032;2022-10-16T02:48:00;13.83;;;9.83;;
7621;SDS011;3852;52.284;8.032;2022-10-16T02:50:26;13.83;;;10.10;;
7621;SDS011;3852;52.284;8.032;2022-10-16T02:52:52;12.67;;;9.17;;
7621;SDS011;3852;52.284;8.032;2022-10-16T02:55:17;12.13;;;9.57;;
7621;SDS011;3852;52.284;8.032;2022-10-16T02:57:43;11.63;;;9.30;;
7621;SDS011;3852;52.284;8.032;2022-10-16T03:00:09;11.27;;;8.97;;
7621;SDS011;3852;52.284;8.032;2022-10-16T03:02:39;13.27;;;10.20;;
7621;SDS011;3852;52.284;8.032;2022-10-16T03:05:05;12.33;;;9.50;;
7621;SDS011;3852;52.284;8.032;2022-10-16T03:07:31;11.87;;;9.40;;
7621;SDS011;3852;52.284;8.032;2022-10-16T03:09:57;11.73;;;8.93;;
7621;SDS011;3852;52.284;8.032;2022-10-16T03:12:26;9.67;;;8.67;;
7621;SDS011;3852;52.284;8.032;2022-10-16T03:14:52;12.67;;;8.60;;
7621;SDS011;3852;52.284;8.032;2022-10-16T03:17:18;11.53;;;8.00;;
7621;SDS011;3852;52.284;8.032;2022-10-16T03:19:44;11.63;;;7.90;;
7621;SDS011;3852;52.284;8.032;2022-10-16T03:22:10;9.70;;;8.70;;
7621;SDS011;3852;52.284;8.032;2022-10-16T03:24:36;9.80;;;8.43;;
7621;SDS011;3852;52.284;8.032;2022-10-16T03:27:02;10.50;;;8.13;;
7621;SDS011;3852;52.284;8.032;2022-10-16T03:29:28;9.70;;;7.97;;
7621;SDS011;3852;52.284;8.032;2022-10-16T03:31:54;13.33;;;8.77;;
7621;SDS011;3852;52.284;8.032;2022-10-16T03:34:21;10.50;;;8.30;;
7621;SDS011;3852;52.284;8.032;2022-10-16T03:36:47;12.73;;;8.50;;
7621;SDS011;3852;52.284;8.032;2022-10-16T03:39:13;10.60;;;7.97;;
7621;SDS011;3852;52.284;8.032;2022-10-16T03:41:39;10.67;;;8.00;;
7621;SDS011;3852;52.284;8.032;2022-10-16T03:44:05;10.77;;;7.93;;
7621;SDS011;3852;52.284;8.032;2022-10-16T03:46:31;10.07;;;8.40;;
7621;SDS011;3852;52.284;8.032;2022-10-16T03:48:56;10.17;;;8.00;;
7621;SDS011;3852;52.284;8.032;2022-10-16T03:51:22;10.03;;;7.43;;
7621;SDS011;3852;52.284;8.032;2022-10-16T03:53:48;10.23;;;8.17;;
7621;SDS011;3852;52.284;8.032;2022-10-16T03:56:14;10.30;;;7.07;;
7621;SDS011;3852;52.284;8.032;2022-10-16T03:58:40;10.17;;;7.20;;
7621;SDS011;3852;52.284;8.032;2022-10-16T04:01:06;9.23;;;6.80;;
7621;SDS011;3852;52.284;8.032;2022-10-16T04:03:32;9.17;;;7.00;;
7621;SDS011;3852;52.284;8.032;2022-10-16T04:05:57;7.50;;;6.80;;
7621;SDS011;3852;52.284;8.032;2022-10-16T04:08:23;8.13;;;6.60;;
7621;SDS011;3852;52.284;8.032;2022-10-16T04:10:49;8.93;;;6.37;;
7621;SDS011;3852;52.284;8.032;2022-10-16T04:13:15;7.60;;;6.40;;
7621;SDS011;3852;52.284;8.032;2022-10-16T04:15:41;7.27;;;6.00;;
7621;SDS011;3852;52.284;8.032;2022-10-16T04:18:07;7.53;;;6.17;;
7621;SDS011;3852;52.284;8.032;2022-10-16T04:20:33;8.00;;;6.27;;
7621;SDS011;3852;52.284;8.032;2022-10-16T04:22:59;9.50;;;6.57;;
7621;SDS011;3852;52.284;8.032;2022-10-16T04:25:25;7.23;;;6.27;;
7621;SDS011;3852;52.284;8.032;2022-10-16T04:27:54;8.57;;;5.80;;
7621;SDS011;3852;52.284;8.032;2022-10-16T04:30:21;6.67;;;5.97;;
7621;SDS011;3852;52.284;8.032;2022-10-16T04:32:48;8.20;;;5.70;;
7621;SDS011;3852;52.284;8.032;2022-10-16T04:35:18;7.57;;;5.20;;
7621;SDS011;3852;52.284;8.032;2022-10-16T04:37:45;7.33;;;5.73;;
7621;SDS011;3852;52.284;8.032;2022-10-16T04:40:10;5.73;;;5.17;;
7621;SDS011;3852;52.284;8.032;2022-10-16T04:42:37;5.57;;;5.07;;
7621;SDS011;3852;52.284;8.032;2022-10-16T04:45:03;7.57;;;5.37;;
7621;SDS011;3852;52.284;8.032;2022-10-16T04:47:30;5.53;;;5.00;;
7621;SDS011;3852;52.284;8.032;2022-10-16T04:49:56;5.30;;;4.80;;
7621;SDS011;3852;52.284;8.032;2022-10-16T04:52:22;5.37;;;4.70;;
7621;SDS011;3852;52.284;8.032;2022-10-16T04:54:50;6.00;;;4.47;;
7621;SDS011;3852;52.284;8.032;2022-10-16T04:57:16;6.23;;;4.53;;
7621;SDS011;3852;52.284;8.032;2022-10-16T04:59:42;5.20;;;4.20;;
7621;SDS011;3852;52.284;8.032;2022-10-16T05:02:08;8.27;;;4.90;;
7621;SDS011;3852;52.284;8.032;2022-10-16T05:04:34;5.10;;;3.90;;
7621;SDS011;3852;52.284;8.032;2022-10-16T05:06:59;4.70;;;4.10;;
7621;SDS011;3852;52.284;8.032;2022-10-16T05:09:25;4.03;;;3.70;;
7621;SDS011;3852;52.284;8.032;2022-10-16T05:11:51;4.40;;;4.00;;
7621;SDS011;3852;52.284;8.032;2022-10-16T05:14:16;4.13;;;3.73;;
7621;SDS011;3852;52.284;8.032;2022-10-16T05:16:42;7.57;;;4.70;;
7621;SDS011;3852;52.284;8.032;2022-10-16T05:19:08;4.50;;;4.00;;
7621;SDS011;3852;52.284;8.032;2022-10-16T05:21:34;5.33;;;3.87;;
7621;SDS011;3852;52.284;8.032;2022-10-16T05:23:59;3.63;;;3.27;;
7621;SDS011;3852;52.284;8.032;2022-10-16T05:26:25;4.30;;;3.70;;
7621;SDS011;3852;52.284;8.032;2022-10-16T05:28:51;4.47;;;3.80;;
7621;SDS011;3852;52.284;8.032;2022-10-16T05:31:17;4.60;;;3.90;;
7621;SDS011;3852;52.284;8.032;2022-10-16T05:33:42;4.63;;;3.70;;
7621;SDS011;3852;52.284;8.032;2022-10-16T05:36:09;4.27;;;3.73;;
7621;SDS011;3852;52.284;8.032;2022-10-16T05:38:36;4.70;;;3.50;;
7621;SDS011;3852;52.284;8.032;2022-10-16T05:41:03;3.50;;;3.30;;
7621;SDS011;3852;52.284;8.032;2022-10-16T05:43:30;4.40;;;4.00;;
7621;SDS011;3852;52.284;8.032;2022-10-16T05:46:00;5.00;;;3.90;;
7621;SDS011;3852;52.284;8.032;2022-10-16T05:48:29;4.60;;;3.50;;
7621;SDS011;3852;52.284;8.032;2022-10-16T05:51:05;4.63;;;3.60;;
7621;SDS011;3852;52.284;8.032;2022-10-16T05:53:37;3.83;;;3.53;;
7621;SDS011;3852;52.284;8.032;2022-10-16T05:56:05;3.57;;;3.27;;
7621;SDS011;3852;52.284;8.032;2022-10-16T05:58:33;5.20;;;3.57;;
7621;SDS011;3852;52.284;8.032;2022-10-16T06:03:29;3.53;;;3.23;;
7621;SDS011;3852;52.284;8.032;2022-10-16T06:05:55;6.00;;;3.43;;
7621;SDS011;3852;52.284;8.032;2022-10-16T06:08:21;3.57;;;3.27;;
7621;SDS011;3852;52.284;8.032;2022-10-16T06:10:48;3.90;;;3.50;;
7621;SDS011;3852;52.284;8.032;2022-10-16T06:13:24;3.83;;;3.40;;
7621;SDS011;3852;52.284;8.032;2022-10-16T06:15:50;3.67;;;3.37;;
7621;SDS011;3852;52.284;8.032;2022-10-16T06:18:16;4.80;;;3.37;;
7621;SDS011;3852;52.284;8.032;2022-10-16T06:20:42;4.03;;;3.70;;
7621;SDS011;3852;52.284;8.032;2022-10-16T06:23:10;5.10;;;3.20;;
7621;SDS011;3852;52.284;8.032;2022-10-16T06:25:36;3.40;;;2.90;;
7621;SDS011;3852;52.284;8.032;2022-10-16T06:28:01;3.67;;;2.93;;
7621;SDS011;3852;52.284;8.032;2022-10-16T06:30:27;3.43;;;3.07;;
7621;SDS011;3852;52.284;8.032;2022-10-16T06:32:53;3.37;;;2.80;;
7621;SDS011;3852;52.284;8.032;2022-10-16T06:35:19;6.23;;;3.13;;
7621;SDS011;3852;52.284;8.032;2022-10-16T06:37:45;4.17;;;3.17;;
7621;SDS011;3852;52.284;8.032;2022-10-16T06:40:10;4.10;;;3.03;;
7621;SDS011;3852;52.284;8.032;2022-10-16T06:42:36;3.13;;;2.93;;
7621;SDS011;3852;52.284;8.032;2022-10-16T06:45:02;3.60;;;3.10;;
7621;SDS011;3852;52.284;8.032;2022-10-16T06:47:28;3.40;;;2.80;;
7621;SDS011;3852;52.284;8.032;2022-10-16T06:49:54;2.83;;;2.63;;
7621;SDS011;3852;52.284;8.032;2022-10-16T06:52:19;3.03;;;2.80;;
7621;SDS011;3852;52.284;8.032;2022-10-16T06:54:45;4.90;;;2.60;;
7621;SDS011;3852;52.284;8.032;2022-10-16T06:57:11;2.70;;;2.50;;
7621;SDS011;3852;52.284;8.032;2022-10-16T06:59:37;2.80;;;2.60;;
7621;SDS011;3852;52.284;8.032;2022-10-16T07:02:02;3.00;;;2.77;;
7621;SDS011;3852;52.284;8.032;2022-10-16T07:04:28;3.73;;;2.60;;
7621;SDS011;3852;52.284;8.032;2022-10-16T07:06:54;2.67;;;2.47;;
7621;SDS011;3852;52.284;8.032;2022-10-16T07:09:20;2.40;;;2.30;;
7621;SDS011;3852;52.284;8.032;2022-10-16T07:11:45;3.83;;;3.10;;
7621;SDS011;3852;52.284;8.032;2022-10-16T07:14:15;2.70;;;2.40;;
7621;SDS011;3852;52.284;8.032;2022-10-16T07:16:43;2.70;;;2.50;;
7621;SDS011;3852;52.284;8.032;2022-10-16T07:19:09;3.13;;;2.93;;
7621;SDS011;3852;52.284;8.032;2022-10-16T07:21:37;3.10;;;2.70;;
7621;SDS011;3852;52.284;8.032;2022-10-16T07:24:04;2.73;;;2.50;;
7621;SDS011;3852;52.284;8.032;2022-10-16T07:26:36;2.77;;;2.57;;
7621;SDS011;3852;52.284;8.032;2022-10-16T07:29:04;2.80;;;2.40;;
7621;SDS011;3852;52.284;8.032;2022-10-16T07:31:32;2.77;;;2.57;;
7621;SDS011;3852;52.284;8.032;2022-10-16T07:33:59;4.77;;;3.10;;
7621;SDS011;3852;52.284;8.032;2022-10-16T07:36:25;4.40;;;2.60;;
7621;SDS011;3852;52.284;8.032;2022-10-16T07:38:51;4.17;;;2.90;;
7621;SDS011;3852;52.284;8.032;2022-10-16T07:41:17;3.10;;;2.80;;
7621;SDS011;3852;52.284;8.032;2022-10-16T07:43:47;3.37;;;2.40;;
7621;SDS011;3852;52.284;8.032;2022-10-16T07:46:15;3.60;;;3.00;;
7621;SDS011;3852;52.284;8.032;2022-10-16T07:48:42;2.80;;;2.60;;
7621;SDS011;3852;52.284;8.032;2022-10-16T07:51:12;3.00;;;2.70;;
7621;SDS011;3852;52.284;8.032;2022-10-16T07:53:48;3.97;;;2.97;;
7621;SDS011;3852;52.284;8.032;2022-10-16T07:56:15;3.23;;;2.93;;
7621;SDS011;3852;52.284;8.032;2022-10-16T07:58:42;3.00;;;2.77;;
7621;SDS011;3852;52.284;8.032;2022-10-16T08:01:09;4.60;;;3.07;;
7621;SDS011;3852;52.284;8.032;2022-10-16T08:03:38;4.17;;;3.07;;
7621;SDS011;3852;52.284;8.032;2022-10-16T08:06:07;3.33;;;2.77;;
7621;SDS011;3852;52.284;8.032;2022-10-16T08:08:36;3.43;;;2.80;;
7621;SDS011;3852;52.284;8.032;2022-10-16T08:11:01;4.87;;;2.87;;
7621;SDS011;3852;52.284;8.032;2022-10-16T08:13:29;4.03;;;2.73;;
7621;SDS011;3852;52.284;8.032;2022-10-16T08:15:55;3.10;;;2.73;;
7621;SDS011;3852;52.284;8.032;2022-10-16T08:18:21;4.70;;;3.20;;
7621;SDS011;3852;52.284;8.032;2022-10-16T08:20:47;5.93;;;2.93;;
7621;SDS011;3852;52.284;8.032;2022-10-16T08:23:20;3.43;;;3.07;;
7621;SDS011;3852;52.284;8.032;2022-10-16T08:25:46;3.67;;;2.77;;
7621;SDS011;3852;52.284;8.032;2022-10-16T08:28:11;4.63;;;3.23;;
7621;SDS011;3852;52.284;8.032;2022-10-16T08:30:37;3.67;;;2.90;;
7621;SDS011;3852;52.284;8.032;2022-10-16T08:33:03;3.77;;;3.10;;
7621;SDS011;3852;52.284;8.032;2022-10-16T08:35:29;4.67;;;3.07;;
7621;SDS011;3852;52.284;8.032;2022-10-16T08:37:55;5.50;;;2.90;;
7621;SDS011;3852;52.284;8.032;2022-10-16T08:40:28;3.80;;;2.70;;
7621;SDS011;3852;52.284;8.032;2022-10-16T08:45:58;3.87;;;2.67;;
7621;SDS011;3852;52.284;8.032;2022-10-16T08:48:48;3.50;;;2.90;;
7621;SDS011;3852;52.284;8.032;2022-10-16T08:51:27;2.73;;;2.50;;
7621;SDS011;3852;52.284;8.032;2022-10-16T08:59:38;4.77;;;2.70;;
7621;SDS011;3852;52.284;8.032;2022-10-16T09:02:13;7.57;;;2.50;;
7621;SDS011;3852;52.284;8.032;2022-10-16T09:17:03;2.43;;;2.00;;
7621;SDS011;3852;52.284;8.032;2022-10-16T09:23:16;4.67;;;2.13;;
7621;SDS011;3852;52.284;8.032;2022-10-16T09:25:47;3.67;;;2.13;;
7621;SDS011;3852;52.284;8.032;2022-10-16T09:28:15;3.10;;;1.70;;
7621;SDS011;3852;52.284;8.032;2022-10-16T09:30:42;5.07;;;1.80;;
7621;SDS011;3852;52.284;8.032;2022-10-16T09:33:10;2.70;;;1.50;;
7621;SDS011;3852;52.284;8.032;2022-10-16T09:38:29;3.17;;;1.80;;
7621;SDS011;3852;52.284;8.032;2022-10-16T09:41:01;2.80;;;1.83;;
7621;SDS011;3852;52.284;8.032;2022-10-16T09:48:59;4.03;;;1.77;;
7621;SDS011;3852;52.284;8.032;2022-10-16T09:51:31;2.80;;;1.50;;
7621;SDS011;3852;52.284;8.032;2022-10-16T09:56:35;4.00;;;1.60;;
7621;SDS011;3852;52.284;8.032;2022-10-16T09:59:14;2.80;;;1.63;;
7621;SDS011;3852;52.284;8.032;2022-10-16T10:01:46;3.67;;;1.67;;
7621;SDS011;3852;52.284;8.032;2022-10-16T10:04:16;3.40;;;1.53;;
7621;SDS011;3852;52.284;8.032;2022-10-16T10:07:02;3.67;;;1.70;;
7621;SDS011;3852;52.284;8.032;2022-10-16T10:09:29;2.17;;;1.40;;
7621;SDS011;3852;52.284;8.032;2022-10-16T10:12:04;4.93;;;1.50;;
7621;SDS011;3852;52.284;8.032;2022-10-16T10:14:51;3.20;;;1.60;;
7621;SDS011;3852;52.284;8.032;2022-10-16T10:17:21;5.70;;;2.33;;
7621;SDS011;3852;52.284;8.032;2022-10-16T10:19:55;6.67;;;1.53;;
7621;SDS011;3852;52.284;8.032;2022-10-16T10:33:19;4.93;;;1.50;;
7621;SDS011;3852;52.284;8.032;2022-10-16T10:38:56;1.93;;;1.40;;
7621;SDS011;3852;52.284;8.032;2022-10-16T10:47:22;2.67;;;1.37;;
7621;SDS011;3852;52.284;8.032;2022-10-16T11:02:37;1.90;;;1.30;;
7621;SDS011;3852;52.284;8.032;2022-10-16T11:08:17;2.03;;;1.30;;
7621;SDS011;3852;52.284;8.032;2022-10-16T11:16:19;3.70;;;1.70;;
7621;SDS011;3852;52.284;8.032;2022-10-16T11:21:44;3.13;;;1.90;;
7621;SDS011;3852;52.284;8.032;2022-10-16T11:24:41;3.50;;;1.83;;
7621;SDS011;3852;52.284;8.032;2022-10-16T11:27:19;3.37;;;1.60;;
7621;SDS011;3852;52.284;8.032;2022-10-16T11:32:54;3.43;;;1.60;;
7621;SDS011;3852;52.284;8.032;2022-10-16T11:35:44;3.63;;;1.70;;
7621;SDS011;3852;52.284;8.032;2022-10-16T11:41:27;3.17;;;1.70;;
7621;SDS011;3852;52.284;8.032;2022-10-16T11:50:22;2.77;;;1.77;;
7621;SDS011;3852;52.284;8.032;2022-10-16T11:56:13;3.50;;;2.00;;
7621;SDS011;3852;52.284;8.032;2022-10-16T11:58:57;4.00;;;2.10;;
7621;SDS011;3852;52.284;8.032;2022-10-16T12:01:40;2.97;;;2.00;;
7621;SDS011;3852;52.284;8.032;2022-10-16T12:04:16;6.07;;;2.80;;
7621;SDS011;3852;52.284;8.032;2022-10-16T12:09:39;3.37;;;2.20;;
7621;SDS011;3852;52.284;8.032;2022-10-16T12:15:00;5.17;;;2.30;;
7621;SDS011;3852;52.284;8.032;2022-10-16T12:17:46;4.07;;;2.50;;
7621;SDS011;3852;52.284;8.032;2022-10-16T12:22:54;4.87;;;2.30;;
7621;SDS011;3852;52.284;8.032;2022-10-16T12:31:00;6.27;;;2.37;;
7621;SDS011;3852;52.284;8.032;2022-10-16T12:33:30;2.80;;;2.20;;
7621;SDS011;3852;52.284;8.032;2022-10-16T12:36:03;4.80;;;2.30;;
7621;SDS011;3852;52.284;8.032;2022-10-16T12:38:52;5.33;;;2.17;;
7621;SDS011;3852;52.284;8.032;2022-10-16T12:43:54;4.27;;;2.00;;
7621;SDS011;3852;52.284;8.032;2022-10-16T12:46:22;3.20;;;1.97;;
7621;SDS011;3852;52.284;8.032;2022-10-16T12:51:38;2.47;;;1.87;;
7621;SDS011;3852;52.284;8.032;2022-10-16T13:06:38;3.10;;;1.77;;
7621;SDS011;3852;52.284;8.032;2022-10-16T13:09:31;3.13;;;1.80;;
7621;SDS011;3852;52.284;8.032;2022-10-16T13:18:16;3.57;;;1.80;;
7621;SDS011;3852;52.284;8.032;2022-10-16T13:24:06;3.03;;;1.70;;
7621;SDS011;3852;52.284;8.032;2022-10-16T13:30:18;3.67;;;1.30;;
7621;SDS011;3852;52.284;8.032;2022-10-16T13:32:53;2.10;;;1.33;;
7621;SDS011;3852;52.284;8.032;2022-10-16T13:35:35;3.13;;;1.40;;
7621;SDS011;3852;52.284;8.032;2022-10-16T13:38:05;2.60;;;1.50;;
7621;SDS011;3852;52.284;8.032;2022-10-16T13:40:51;2.70;;;1.20;;
7621;SDS011;3852;52.284;8.032;2022-10-16T13:43:23;4.93;;;1.87;;
7621;SDS011;3852;52.284;8.032;2022-10-16T13:46:04;6.20;;;1.47;;
7621;SDS011;3852;52.284;8.032;2022-10-16T13:48:32;3.33;;;1.83;;
7621;SDS011;3852;52.284;8.032;2022-10-16T13:51:00;3.87;;;1.50;;
7621;SDS011;3852;52.284;8.032;2022-10-16T13:53:43;5.50;;;2.10;;
7621;SDS011;3852;52.284;8.032;2022-10-16T13:56:15;4.20;;;1.97;;
7621;SDS011;3852;52.284;8.032;2022-10-16T13:58:43;7.17;;;1.70;;
7621;SDS011;3852;52.284;8.032;2022-10-16T14:01:26;3.50;;;1.87;;
7621;SDS011;3852;52.284;8.032;2022-10-16T14:04:05;3.47;;;1.50;;
7621;SDS011;3852;52.284;8.032;2022-10-16T14:06:34;2.67;;;1.20;;
7621;SDS011;3852;52.284;8.032;2022-10-16T14:09:05;7.30;;;1.77;;
7621;SDS011;3852;52.284;8.032;2022-10-16T14:11:46;4.23;;;1.50;;
7621;SDS011;3852;52.284;8.032;2022-10-16T14:14:16;4.23;;;1.60;;
7621;SDS011;3852;52.284;8.032;2022-10-16T14:16:44;3.27;;;1.50;;
7621;SDS011;3852;52.284;8.032;2022-10-16T14:19:29;4.83;;;1.67;;
7621;SDS011;3852;52.284;8.032;2022-10-16T14:21:56;1.67;;;1.30;;
7621;SDS011;3852;52.284;8.032;2022-10-16T14:24:31;4.30;;;1.37;;
7621;SDS011;3852;52.284;8.032;2022-10-16T14:26:59;2.27;;;1.40;;
7621;SDS011;3852;52.284;8.032;2022-10-16T14:29:27;3.17;;;1.40;;
7621;SDS011;3852;52.284;8.032;2022-10-16T14:32:00;4.00;;;1.50;;
7621;SDS011;3852;52.284;8.032;2022-10-16T14:34:34;3.40;;;1.43;;
7621;SDS011;3852;52.284;8.032;2022-10-16T14:39:51;2.47;;;1.57;;
7621;SDS011;3852;52.284;8.032;2022-10-16T14:42:19;3.90;;;1.40;;
7621;SDS011;3852;52.284;8.032;2022-10-16T14:44:49;3.03;;;1.53;;
7621;SDS011;3852;52.284;8.032;2022-10-16T14:47:21;2.00;;;1.67;;
7621;SDS011;3852;52.284;8.032;2022-10-16T14:49:51;4.10;;;1.57;;
7621;SDS011;3852;52.284;8.032;2022-10-16T14:52:20;4.67;;;1.53;;
7621;SDS011;3852;52.284;8.032;2022-10-16T14:54:49;2.27;;;1.33;;
7621;SDS011;3852;52.284;8.032;2022-10-16T14:57:20;3.70;;;1.40;;
7621;SDS011;3852;52.284;8.032;2022-10-16T14:59:48;4.67;;;1.50;;
7621;SDS011;3852;52.284;8.032;2022-10-16T15:02:31;2.87;;;1.77;;
7621;SDS011;3852;52.284;8.032;2022-10-16T15:05:19;2.83;;;1.40;;
7621;SDS011;3852;52.284;8.032;2022-10-16T15:07:48;3.47;;;1.60;;
7621;SDS011;3852;52.284;8.032;2022-10-16T15:10:16;5.13;;;1.60;;
7621;SDS011;3852;52.284;8.032;2022-10-16T15:12:43;4.30;;;1.77;;
7621;SDS011;3852;52.284;8.032;2022-10-16T15:15:15;4.83;;;1.80;;
7621;SDS011;3852;52.284;8.032;2022-10-16T15:17:59;3.70;;;1.70;;
7621;SDS011;3852;52.284;8.032;2022-10-16T15:20:30;2.37;;;1.60;;
7621;SDS011;3852;52.284;8.032;2022-10-16T15:23:03;5.40;;;1.80;;
7621;SDS011;3852;52.284;8.032;2022-10-16T15:25:53;2.63;;;1.47;;
7621;SDS011;3852;52.284;8.032;2022-10-16T15:28:21;3.23;;;1.37;;
7621;SDS011;3852;52.284;8.032;2022-10-16T15:30:49;2.93;;;1.30;;
7621;SDS011;3852;52.284;8.032;2022-10-16T15:33:20;2.73;;;1.27;;
7621;SDS011;3852;52.284;8.032;2022-10-16T15:35:52;6.13;;;1.80;;
7621;SDS011;3852;52.284;8.032;2022-10-16T15:38:19;2.10;;;1.37;;
7621;SDS011;3852;52.284;8.032;2022-10-16T15:40:47;5.70;;;1.50;;
7621;SDS011;3852;52.284;8.032;2022-10-16T15:43:14;2.73;;;1.20;;
7621;SDS011;3852;52.284;8.032;2022-10-16T15:45:40;2.07;;;1.37;;
7621;SDS011;3852;52.284;8.032;2022-10-16T15:48:09;2.30;;;1.30;;
7621;SDS011;3852;52.284;8.032;2022-10-16T15:50:37;2.67;;;1.30;;
7621;SDS011;3852;52.284;8.032;2022-10-16T15:53:04;2.07;;;1.30;;
7621;SDS011;3852;52.284;8.032;2022-10-16T15:55:30;1.57;;;1.30;;
7621;SDS011;3852;52.284;8.032;2022-10-16T15:57:55;3.20;;;1.30;;
7621;SDS011;3852;52.284;8.032;2022-10-16T16:00:21;5.07;;;1.50;;
7621;SDS011;3852;52.284;8.032;2022-10-16T16:02:51;2.80;;;1.50;;
7621;SDS011;3852;52.284;8.032;2022-10-16T16:05:18;4.37;;;1.50;;
7621;SDS011;3852;52.284;8.032;2022-10-16T16:07:46;1.97;;;1.33;;
7621;SDS011;3852;52.284;8.032;2022-10-16T16:10:12;2.73;;;1.30;;
7621;SDS011;3852;52.284;8.032;2022-10-16T16:12:38;3.73;;;1.50;;
7621;SDS011;3852;52.284;8.032;2022-10-16T16:15:05;2.93;;;1.40;;
7621;SDS011;3852;52.284;8.032;2022-10-16T16:17:33;3.13;;;1.57;;
7621;SDS011;3852;52.284;8.032;2022-10-16T16:20:00;3.97;;;1.40;;
7621;SDS011;3852;52.284;8.032;2022-10-16T16:22:26;4.20;;;1.60;;
7621;SDS011;3852;52.284;8.032;2022-10-16T16:24:52;1.50;;;1.40;;
7621;SDS011;3852;52.284;8.032;2022-10-16T16:27:18;2.13;;;1.40;;
7621;SDS011;3852;52.284;8.032;2022-10-16T16:29:44;1.70;;;1.40;;
7621;SDS011;3852;52.284;8.032;2022-10-16T16:32:11;2.17;;;1.40;;
7621;SDS011;3852;52.284;8.032;2022-10-16T16:34:37;1.70;;;1.60;;
7621;SDS011;3852;52.284;8.032;2022-10-16T16:37:03;2.37;;;1.70;;
7621;SDS011;3852;52.284;8.032;2022-10-16T16:39:29;4.20;;;1.67;;
7621;SDS011;3852;52.284;8.032;2022-10-16T16:41:55;5.10;;;1.60;;
7621;SDS011;3852;52.284;8.032;2022-10-16T16:44:23;4.03;;;1.60;;
7621;SDS011;3852;52.284;8.032;2022-10-16T16:46:49;2.37;;;1.83;;
7621;SDS011;3852;52.284;8.032;2022-10-16T16:49:15;2.77;;;2.07;;
7621;SDS011;3852;52.284;8.032;2022-10-16T16:51:41;1.90;;;1.80;;
7621;SDS011;3852;52.284;8.032;2022-10-16T16:54:07;3.60;;;1.90;;
7621;SDS011;3852;52.284;8.032;2022-10-16T16:56:35;4.07;;;2.43;;
7621;SDS011;3852;52.284;8.032;2022-10-16T16:59:01;7.17;;;2.73;;
7621;SDS011;3852;52.284;8.032;2022-10-16T17:01:27;3.90;;;2.63;;
7621;SDS011;3852;52.284;8.032;2022-10-16T17:03:54;3.27;;;2.60;;
7621;SDS011;3852;52.284;8.032;2022-10-16T17:06:23;4.07;;;2.90;;
7621;SDS011;3852;52.284;8.032;2022-10-16T17:08:52;4.60;;;2.70;;
7621;SDS011;3852;52.284;8.032;2022-10-16T17:11:22;3.20;;;2.50;;
7621;SDS011;3852;52.284;8.032;2022-10-16T17:13:53;3.43;;;2.43;;
7621;SDS011;3852;52.284;8.032;2022-10-16T17:16:22;5.90;;;2.40;;
7621;SDS011;3852;52.284;8.032;2022-10-16T17:19:00;2.87;;;2.67;;
7621;SDS011;3852;52.284;8.032;2022-10-16T17:21:28;3.60;;;2.30;;
7621;SDS011;3852;52.284;8.032;2022-10-16T17:23:55;3.57;;;2.20;;
7621;SDS011;3852;52.284;8.032;2022-10-16T17:26:21;5.00;;;2.33;;
7621;SDS011;3852;52.284;8.032;2022-10-16T17:28:50;5.60;;;2.73;;
7621;SDS011;3852;52.284;8.032;2022-10-16T17:31:29;2.93;;;2.30;;
7621;SDS011;3852;52.284;8.032;2022-10-16T17:33:58;4.97;;;2.50;;
7621;SDS011;3852;52.284;8.032;2022-10-16T17:36:26;4.00;;;2.40;;
7621;SDS011;3852;52.284;8.032;2022-10-16T17:38:59;3.60;;;2.90;;
7621;SDS011;3852;52.284;8.032;2022-10-16T17:41:28;7.63;;;4.73;;
7621;SDS011;3852;52.284;8.032;2022-10-16T17:43:54;6.53;;;5.40;;
7621;SDS011;3852;52.284;8.032;2022-10-16T17:46:21;6.30;;;5.10;;
7621;SDS011;3852;52.284;8.032;2022-10-16T17:48:49;6.83;;;4.70;;
7621;SDS011;3852;52.284;8.032;2022-10-16T17:51:19;7.50;;;5.10;;
7621;SDS011;3852;52.284;8.032;2022-10-16T17:53:51;8.20;;;5.60;;
7621;SDS011;3852;52.284;8.032;2022-10-16T17:56:20;7.00;;;5.00;;
7621;SDS011;3852;52.284;8.032;2022-10-16T17:58:52;6.37;;;4.57;;
7621;SDS011;3852;52.284;8.032;2022-10-16T18:03:52;8.67;;;4.40;;
7621;SDS011;3852;52.284;8.032;2022-10-16T18:06:24;5.50;;;4.33;;
7621;SDS011;3852;52.284;8.032;2022-10-16T18:08:51;7.40;;;5.00;;
7621;SDS011;3852;52.284;8.032;2022-10-16T18:11:19;5.73;;;4.47;;